sensor_id;sensor_type;location;lat;lon;timestamp;P1;durP1;ratioP1;P2;durP2;ratioP2
16099;SDS011;8154;50.830;12.082;2023-04-03T00:01:15;0.60;;;0.60;;
16099;SDS011;8154;50.830;12.082;2023-04-03T00:03:42;0.65;;;0.65;;
16099;SDS011;8154;50.830;12.082;2023-04-03T00:06:08;0.60;;;0.60;;
16099;SDS011;8154;50.830;12.082;2023-04-03T00:08:36;0.70;;;0.70;;
16099;SDS011;8154;50.830;12.082;2023-04-03T00:11:02;0.60;;;0.60;;
16099;SDS011;8154;50.830;12.082;2023-04-03T00:13:29;0.70;;;0.70;;
16099;SDS011;8154;50.830;12.082;2023-04-03T00:15:55;0.60;;;0.60;;
16099;SDS011;8154;50.830;12.082;2023-04-03T00:18:22;0.80;;;0.80;;
16099;SDS011;8154;50.830;12.082;2023-04-03T00:20:48;0.70;;;0.70;;
16099;SDS011;8154;50.830;12.082;2023-04-03T00:23:14;0.65;;;0.65;;
16099;SDS011;8154;50.830;12.082;2023-04-03T00:25:41;0.50;;;0.50;;
16099;SDS011;8154;50.830;12.082;2023-04-03T00:28:07;0.60;;;0.60;;
16099;SDS011;8154;50.830;12.082;2023-04-03T00:30:34;0.60;;;0.60;;
16099;SDS011;8154;50.830;12.082;2023-04-03T00:33:00;0.65;;;0.65;;
16099;SDS011;8154;50.830;12.082;2023-04-03T00:35:27;0.57;;;0.57;;
16099;SDS011;8154;50.830;12.082;2023-04-03T00:37:54;0.63;;;0.63;;
16099;SDS011;8154;50.830;12.082;2023-04-03T00:40:22;0.60;;;0.60;;
16099;SDS011;8154;50.830;12.082;2023-04-03T00:42:59;0.70;;;0.70;;
16099;SDS011;8154;50.830;12.082;2023-04-03T00:45:33;0.80;;;0.80;;
16099;SDS011;8154;50.830;12.082;2023-04-03T00:48:03;0.50;;;0.50;;
16099;SDS011;8154;50.830;12.082;2023-04-03T00:50:32;0.60;;;0.60;;
16099;SDS011;8154;50.830;12.082;2023-04-03T00:53:00;0.50;;;0.50;;
16099;SDS011;8154;50.830;12.082;2023-04-03T00:55:27;0.60;;;0.60;;
16099;SDS011;8154;50.830;12.082;2023-04-03T00:57:54;0.60;;;0.60;;
16099;SDS011;8154;50.830;12.082;2023-04-03T01:00:20;0.60;;;0.60;;
16099;SDS011;8154;50.830;12.082;2023-04-03T01:02:49;0.63;;;0.63;;
16099;SDS011;8154;50.830;12.082;2023-04-03T01:05:17;0.55;;;0.55;;
16099;SDS011;8154;50.830;12.082;2023-04-03T01:07:44;0.70;;;0.70;;
16099;SDS011;8154;50.830;12.082;2023-04-03T01:10:12;0.60;;;0.60;;
16099;SDS011;8154;50.830;12.082;2023-04-03T01:12:42;0.60;;;0.60;;
16099;SDS011;8154;50.830;12.082;2023-04-03T01:15:15;0.63;;;0.63;;
16099;SDS011;8154;50.830;12.082;2023-04-03T01:17:50;0.60;;;0.60;;
16099;SDS011;8154;50.830;12.082;2023-04-03T01:25:41;0.60;;;0.60;;
16099;SDS011;8154;50.830;12.082;2023-04-03T01:28:12;0.50;;;0.50;;
16099;SDS011;8154;50.830;12.082;2023-04-03T01:33:26;0.70;;;0.70;;
16099;SDS011;8154;50.830;12.082;2023-04-03T01:35:52;0.60;;;0.60;;
16099;SDS011;8154;50.830;12.082;2023-04-03T01:38:18;0.60;;;0.60;;
16099;SDS011;8154;50.830;12.082;2023-04-03T01:40:44;0.70;;;0.70;;
16099;SDS011;8154;50.830;12.082;2023-04-03T02:44:24;0.50;;;0.50;;
16099;SDS011;8154;50.830;12.082;2023-04-03T02:46:50;0.60;;;0.60;;
16099;SDS011;8154;50.830;12.082;2023-04-03T02:49:16;0.50;;;0.50;;
16099;SDS011;8154;50.830;12.082;2023-04-03T02:51:43;0.60;;;0.60;;
16099;SDS011;8154;50.830;12.082;2023-04-03T02:54:09;0.50;;;0.50;;
16099;SDS011;8154;50.830;12.082;2023-04-03T02:56:35;0.57;;;0.57;;
16099;SDS011;8154;50.830;12.082;2023-04-03T02:59:01;0.60;;;0.60;;
16099;SDS011;8154;50.830;12.082;2023-04-03T03:01:27;0.60;;;0.60;;
16099;SDS011;8154;50.830;12.082;2023-04-03T03:03:57;0.60;;;0.60;;
16099;SDS011;8154;50.830;12.082;2023-04-03T03:06:24;0.50;;;0.50;;
16099;SDS011;8154;50.830;12.082;2023-04-03T03:08:50;0.52;;;0.52;;
16099;SDS011;8154;50.830;12.082;2023-04-03T03:11:16;0.60;;;0.60;;
16099;SDS011;8154;50.830;12.082;2023-04-03T03:13:42;0.50;;;0.50;;
16099;SDS011;8154;50.830;12.082;2023-04-03T03:16:09;0.70;;;0.70;;
16099;SDS011;8154;50.830;12.082;2023-04-03T03:18:35;0.52;;;0.52;;
16099;SDS011;8154;50.830;12.082;2023-04-03T03:21:02;0.60;;;0.60;;
16099;SDS011;8154;50.830;12.082;2023-04-03T03:23:29;0.50;;;0.50;;
16099;SDS011;8154;50.830;12.082;2023-04-03T03:25:58;0.68;;;0.68;;
16099;SDS011;8154;50.830;12.082;2023-04-03T03:28:28;0.60;;;0.60;;
16099;SDS011;8154;50.830;12.082;2023-04-03T03:30:55;0.63;;;0.63;;
16099;SDS011;8154;50.830;12.082;2023-04-03T03:33:22;0.60;;;0.60;;
16099;SDS011;8154;50.830;12.082;2023-04-03T03:35:48;0.60;;;0.60;;
16099;SDS011;8154;50.830;12.082;2023-04-03T03:38:15;0.43;;;0.43;;
16099;SDS011;8154;50.830;12.082;2023-04-03T03:40:41;0.60;;;0.60;;
16099;SDS011;8154;50.830;12.082;2023-04-03T03:43:07;0.60;;;0.60;;
16099;SDS011;8154;50.830;12.082;2023-04-03T03:45:33;0.60;;;0.60;;
16099;SDS011;8154;50.830;12.082;2023-04-03T03:48:00;0.47;;;0.47;;
16099;SDS011;8154;50.830;12.082;2023-04-03T03:50:26;0.60;;;0.60;;
16099;SDS011;8154;50.830;12.082;2023-04-03T03:53:03;0.60;;;0.60;;
16099;SDS011;8154;50.830;12.082;2023-04-03T03:55:29;0.52;;;0.52;;
16099;SDS011;8154;50.830;12.082;2023-04-03T03:57:55;0.50;;;0.50;;
16099;SDS011;8154;50.830;12.082;2023-04-03T04:00:21;0.60;;;0.60;;
16099;SDS011;8154;50.830;12.082;2023-04-03T04:02:48;0.50;;;0.50;;
16099;SDS011;8154;50.830;12.082;2023-04-03T04:05:14;0.60;;;0.60;;
16099;SDS011;8154;50.830;12.082;2023-04-03T04:07:40;0.60;;;0.60;;
16099;SDS011;8154;50.830;12.082;2023-04-03T04:10:06;0.50;;;0.50;;
16099;SDS011;8154;50.830;12.082;2023-04-03T04:12:32;0.50;;;0.50;;
16099;SDS011;8154;50.830;12.082;2023-04-03T04:15:01;0.65;;;0.65;;
16099;SDS011;8154;50.830;12.082;2023-04-03T04:17:28;0.55;;;0.55;;
16099;SDS011;8154;50.830;12.082;2023-04-03T04:19:54;0.55;;;0.50;;
16099;SDS011;8154;50.830;12.082;2023-04-03T04:22:20;0.60;;;0.60;;
16099;SDS011;8154;50.830;12.082;2023-04-03T04:24:46;0.55;;;0.55;;
16099;SDS011;8154;50.830;12.082;2023-04-03T04:27:12;0.50;;;0.50;;
16099;SDS011;8154;50.830;12.082;2023-04-03T04:29:38;0.55;;;0.55;;
16099;SDS011;8154;50.830;12.082;2023-04-03T04:32:04;0.60;;;0.60;;
16099;SDS011;8154;50.830;12.082;2023-04-03T04:34:31;0.50;;;0.50;;
16099;SDS011;8154;50.830;12.082;2023-04-03T04:36:56;0.65;;;0.65;;
16099;SDS011;8154;50.830;12.082;2023-04-03T04:39:22;0.60;;;0.60;;
16099;SDS011;8154;50.830;12.082;2023-04-03T04:41:49;0.70;;;0.70;;
16099;SDS011;8154;50.830;12.082;2023-04-03T05:45:26;0.60;;;0.60;;
16099;SDS011;8154;50.830;12.082;2023-04-03T05:47:52;0.60;;;0.60;;
16099;SDS011;8154;50.830;12.082;2023-04-03T05:50:18;0.50;;;0.50;;
16099;SDS011;8154;50.830;12.082;2023-04-03T05:52:45;0.50;;;0.50;;
16099;SDS011;8154;50.830;12.082;2023-04-03T05:55:14;0.60;;;0.60;;
16099;SDS011;8154;50.830;12.082;2023-04-03T05:57:41;0.57;;;0.57;;
16099;SDS011;8154;50.830;12.082;2023-04-03T06:00:08;0.70;;;0.70;;
16099;SDS011;8154;50.830;12.082;2023-04-03T06:02:38;0.47;;;0.47;;
16099;SDS011;8154;50.830;12.082;2023-04-03T06:05:04;0.50;;;0.50;;
16099;SDS011;8154;50.830;12.082;2023-04-03T06:07:30;0.70;;;0.70;;
16099;SDS011;8154;50.830;12.082;2023-04-03T06:09:57;0.60;;;0.60;;
16099;SDS011;8154;50.830;12.082;2023-04-03T06:12:23;0.55;;;0.55;;
16099;SDS011;8154;50.830;12.082;2023-04-03T06:14:49;0.70;;;0.70;;
16099;SDS011;8154;50.830;12.082;2023-04-03T06:17:17;0.60;;;0.60;;
16099;SDS011;8154;50.830;12.082;2023-04-03T06:19:44;0.50;;;0.50;;
16099;SDS011;8154;50.830;12.082;2023-04-03T06:22:10;0.63;;;0.63;;
16099;SDS011;8154;50.830;12.082;2023-04-03T06:24:37;0.60;;;0.60;;
16099;SDS011;8154;50.830;12.082;2023-04-03T06:27:03;0.65;;;0.65;;
16099;SDS011;8154;50.830;12.082;2023-04-03T06:29:30;0.73;;;0.73;;
16099;SDS011;8154;50.830;12.082;2023-04-03T06:31:58;0.50;;;0.50;;
16099;SDS011;8154;50.830;12.082;2023-04-03T06:34:24;0.55;;;0.55;;
16099;SDS011;8154;50.830;12.082;2023-04-03T06:36:50;0.70;;;0.70;;
16099;SDS011;8154;50.830;12.082;2023-04-03T06:39:18;0.50;;;0.50;;
16099;SDS011;8154;50.830;12.082;2023-04-03T06:41:48;0.57;;;0.57;;
16099;SDS011;8154;50.830;12.082;2023-04-03T06:44:15;0.52;;;0.52;;
16099;SDS011;8154;50.830;12.082;2023-04-03T06:46:42;0.60;;;0.60;;
16099;SDS011;8154;50.830;12.082;2023-04-03T06:49:09;0.70;;;0.70;;
16099;SDS011;8154;50.830;12.082;2023-04-03T06:51:36;0.60;;;0.60;;
16099;SDS011;8154;50.830;12.082;2023-04-03T06:54:03;0.55;;;0.55;;
16099;SDS011;8154;50.830;12.082;2023-04-03T06:56:30;0.50;;;0.50;;
16099;SDS011;8154;50.830;12.082;2023-04-03T06:58:57;0.60;;;0.60;;
16099;SDS011;8154;50.830;12.082;2023-04-03T07:01:24;0.80;;;0.80;;
16099;SDS011;8154;50.830;12.082;2023-04-03T07:03:53;0.60;;;0.60;;
16099;SDS011;8154;50.830;12.082;2023-04-03T07:06:20;0.63;;;0.63;;
16099;SDS011;8154;50.830;12.082;2023-04-03T07:08:46;0.50;;;0.50;;
16099;SDS011;8154;50.830;12.082;2023-04-03T07:11:14;0.60;;;0.57;;
16099;SDS011;8154;50.830;12.082;2023-04-03T07:13:50;0.60;;;0.60;;
16099;SDS011;8154;50.830;12.082;2023-04-03T07:16:17;0.60;;;0.60;;
16099;SDS011;8154;50.830;12.082;2023-04-03T07:18:44;0.63;;;0.60;;
16099;SDS011;8154;50.830;12.082;2023-04-03T07:21:11;0.60;;;0.60;;
16099;SDS011;8154;50.830;12.082;2023-04-03T07:23:38;0.60;;;0.60;;
16099;SDS011;8154;50.830;12.082;2023-04-03T07:26:05;0.60;;;0.60;;
16099;SDS011;8154;50.830;12.082;2023-04-03T07:28:32;0.60;;;0.60;;
16099;SDS011;8154;50.830;12.082;2023-04-03T07:31:02;0.60;;;0.60;;
16099;SDS011;8154;50.830;12.082;2023-04-03T07:33:32;0.50;;;0.50;;
16099;SDS011;8154;50.830;12.082;2023-04-03T07:35:58;0.65;;;0.65;;
16099;SDS011;8154;50.830;12.082;2023-04-03T07:38:25;0.70;;;0.70;;
16099;SDS011;8154;50.830;12.082;2023-04-03T07:40:52;0.70;;;0.70;;
16099;SDS011;8154;50.830;12.082;2023-04-03T07:43:18;0.75;;;0.60;;
16099;SDS011;8154;50.830;12.082;2023-04-03T07:45:46;0.70;;;0.70;;
16099;SDS011;8154;50.830;12.082;2023-04-03T08:49:42;0.70;;;0.70;;
16099;SDS011;8154;50.830;12.082;2023-04-03T08:52:31;0.60;;;0.60;;
16099;SDS011;8154;50.830;12.082;2023-04-03T08:55:00;0.73;;;0.63;;
16099;SDS011;8154;50.830;12.082;2023-04-03T08:57:35;0.63;;;0.63;;
16099;SDS011;8154;50.830;12.082;2023-04-03T09:00:09;0.60;;;0.60;;
16099;SDS011;8154;50.830;12.082;2023-04-03T09:02:43;0.70;;;0.70;;
16099;SDS011;8154;50.830;12.082;2023-04-03T09:05:16;0.57;;;0.57;;
16099;SDS011;8154;50.830;12.082;2023-04-03T09:07:57;0.60;;;0.60;;
16099;SDS011;8154;50.830;12.082;2023-04-03T09:10:29;0.50;;;0.50;;
16099;SDS011;8154;50.830;12.082;2023-04-03T09:12:59;0.60;;;0.60;;
16099;SDS011;8154;50.830;12.082;2023-04-03T09:15:33;0.60;;;0.60;;
16099;SDS011;8154;50.830;12.082;2023-04-03T09:18:02;0.60;;;0.60;;
16099;SDS011;8154;50.830;12.082;2023-04-03T09:23:04;0.70;;;0.70;;
16099;SDS011;8154;50.830;12.082;2023-04-03T09:26:00;0.50;;;0.50;;
16099;SDS011;8154;50.830;12.082;2023-04-03T09:28:43;0.63;;;0.63;;
16099;SDS011;8154;50.830;12.082;2023-04-03T09:31:24;0.57;;;0.50;;
16099;SDS011;8154;50.830;12.082;2023-04-03T09:33:54;0.60;;;0.60;;
16099;SDS011;8154;50.830;12.082;2023-04-03T09:36:41;0.50;;;0.50;;
16099;SDS011;8154;50.830;12.082;2023-04-03T09:39:15;0.60;;;0.60;;
16099;SDS011;8154;50.830;12.082;2023-04-03T09:44:53;0.60;;;0.60;;
16099;SDS011;8154;50.830;12.082;2023-04-03T09:47:30;0.95;;;0.90;;
16099;SDS011;8154;50.830;12.082;2023-04-03T13:51:47;1.50;;;1.40;;
16099;SDS011;8154;50.830;12.082;2023-04-03T13:54:20;1.20;;;1.10;;
16099;SDS011;8154;50.830;12.082;2023-04-03T13:57:03;1.40;;;1.30;;
16099;SDS011;8154;50.830;12.082;2023-04-03T13:59:38;1.35;;;1.25;;
16099;SDS011;8154;50.830;12.082;2023-04-03T14:04:55;1.50;;;1.40;;
16099;SDS011;8154;50.830;12.082;2023-04-03T14:07:23;1.30;;;1.20;;
16099;SDS011;8154;50.830;12.082;2023-04-03T14:09:51;1.48;;;1.38;;
16099;SDS011;8154;50.830;12.082;2023-04-03T14:12:25;1.67;;;1.58;;
16099;SDS011;8154;50.830;12.082;2023-04-03T14:15:04;1.60;;;1.50;;
16099;SDS011;8154;50.830;12.082;2023-04-03T14:17:38;1.80;;;1.70;;
16099;SDS011;8154;50.830;12.082;2023-04-03T14:20:04;1.90;;;1.80;;
16099;SDS011;8154;50.830;12.082;2023-04-03T14:22:31;1.70;;;1.60;;
16099;SDS011;8154;50.830;12.082;2023-04-03T14:24:59;1.70;;;1.60;;
16099;SDS011;8154;50.830;12.082;2023-04-03T14:27:29;1.70;;;1.60;;
16099;SDS011;8154;50.830;12.082;2023-04-03T14:30:00;1.85;;;1.75;;
16099;SDS011;8154;50.830;12.082;2023-04-03T14:32:29;1.92;;;1.83;;
16099;SDS011;8154;50.830;12.082;2023-04-03T14:34:55;1.80;;;1.70;;
16099;SDS011;8154;50.830;12.082;2023-04-03T14:37:24;1.85;;;1.75;;
16099;SDS011;8154;50.830;12.082;2023-04-03T14:39:53;1.60;;;1.50;;
16099;SDS011;8154;50.830;12.082;2023-04-03T14:42:29;1.77;;;1.67;;
16099;SDS011;8154;50.830;12.082;2023-04-03T14:44:58;1.70;;;1.60;;
16099;SDS011;8154;50.830;12.082;2023-04-03T14:47:26;1.88;;;1.77;;
16099;SDS011;8154;50.830;12.082;2023-04-03T14:49:55;1.80;;;1.70;;
16099;SDS011;8154;50.830;12.082;2023-04-03T14:52:26;1.70;;;1.60;;
16099;SDS011;8154;50.830;12.082;2023-04-03T14:54:55;1.85;;;1.75;;
16099;SDS011;8154;50.830;12.082;2023-04-03T14:57:25;1.88;;;1.77;;
16099;SDS011;8154;50.830;12.082;2023-04-03T14:59:53;1.80;;;1.70;;
16099;SDS011;8154;50.830;12.082;2023-04-03T15:04:57;1.88;;;1.77;;
16099;SDS011;8154;50.830;12.082;2023-04-03T15:07:25;1.80;;;1.70;;
16099;SDS011;8154;50.830;12.082;2023-04-03T15:09:54;1.75;;;1.65;;
16099;SDS011;8154;50.830;12.082;2023-04-03T15:12:22;1.90;;;1.80;;
16099;SDS011;8154;50.830;12.082;2023-04-03T15:14:50;1.90;;;1.80;;
16099;SDS011;8154;50.830;12.082;2023-04-03T15:17:18;1.98;;;1.88;;
16099;SDS011;8154;50.830;12.082;2023-04-03T15:19:47;1.92;;;1.83;;
16099;SDS011;8154;50.830;12.082;2023-04-03T15:22:15;1.80;;;1.70;;
16099;SDS011;8154;50.830;12.082;2023-04-03T15:24:42;2.00;;;1.90;;
16099;SDS011;8154;50.830;12.082;2023-04-03T15:27:09;1.83;;;1.73;;
16099;SDS011;8154;50.830;12.082;2023-04-03T15:29:38;1.70;;;1.60;;
16099;SDS011;8154;50.830;12.082;2023-04-03T15:32:05;1.80;;;1.70;;
16099;SDS011;8154;50.830;12.082;2023-04-03T15:34:32;1.90;;;1.80;;
16099;SDS011;8154;50.830;12.082;2023-04-03T15:36:58;1.90;;;1.80;;
16099;SDS011;8154;50.830;12.082;2023-04-03T15:39:25;1.77;;;1.67;;
16099;SDS011;8154;50.830;12.082;2023-04-03T15:41:52;1.80;;;1.70;;
16099;SDS011;8154;50.830;12.082;2023-04-03T15:44:19;1.80;;;1.70;;
16099;SDS011;8154;50.830;12.082;2023-04-03T15:46:46;2.05;;;1.92;;
16099;SDS011;8154;50.830;12.082;2023-04-03T15:49:17;1.90;;;1.80;;
16099;SDS011;8154;50.830;12.082;2023-04-03T15:51:45;1.95;;;1.85;;
16099;SDS011;8154;50.830;12.082;2023-04-03T15:54:11;1.70;;;1.60;;
16099;SDS011;8154;50.830;12.082;2023-04-03T15:56:38;1.73;;;1.63;;
16099;SDS011;8154;50.830;12.082;2023-04-03T15:59:04;1.90;;;1.80;;
16099;SDS011;8154;50.830;12.082;2023-04-03T16:01:30;1.60;;;1.50;;
16099;SDS011;8154;50.830;12.082;2023-04-03T16:03:57;1.80;;;1.70;;
16099;SDS011;8154;50.830;12.082;2023-04-03T16:06:23;1.85;;;1.75;;
16099;SDS011;8154;50.830;12.082;2023-04-03T16:08:51;1.83;;;1.73;;
16099;SDS011;8154;50.830;12.082;2023-04-03T16:11:17;1.85;;;1.75;;
16099;SDS011;8154;50.830;12.082;2023-04-03T16:13:43;1.90;;;1.80;;
16099;SDS011;8154;50.830;12.082;2023-04-03T16:16:09;1.85;;;1.75;;
16099;SDS011;8154;50.830;12.082;2023-04-03T16:18:35;1.92;;;1.83;;
16099;SDS011;8154;50.830;12.082;2023-04-03T16:21:02;2.00;;;1.90;;
16099;SDS011;8154;50.830;12.082;2023-04-03T16:23:28;1.90;;;1.80;;
16099;SDS011;8154;50.830;12.082;2023-04-03T16:25:54;1.80;;;1.70;;
16099;SDS011;8154;50.830;12.082;2023-04-03T16:28:20;1.90;;;1.70;;
16099;SDS011;8154;50.830;12.082;2023-04-03T16:30:46;2.10;;;1.95;;
16099;SDS011;8154;50.830;12.082;2023-04-03T16:33:14;1.88;;;1.77;;
16099;SDS011;8154;50.830;12.082;2023-04-03T16:35:41;1.85;;;1.75;;
16099;SDS011;8154;50.830;12.082;2023-04-03T16:38:08;1.80;;;1.70;;
16099;SDS011;8154;50.830;12.082;2023-04-03T16:40:35;1.80;;;1.70;;
16099;SDS011;8154;50.830;12.082;2023-04-03T16:43:01;1.80;;;1.70;;
16099;SDS011;8154;50.830;12.082;2023-04-03T16:45:28;2.00;;;1.90;;
16099;SDS011;8154;50.830;12.082;2023-04-03T16:47:54;1.80;;;1.70;;
16099;SDS011;8154;50.830;12.082;2023-04-03T17:51:58;1.80;;;1.70;;
16099;SDS011;8154;50.830;12.082;2023-04-03T17:54:24;1.60;;;1.50;;
16099;SDS011;8154;50.830;12.082;2023-04-03T17:56:51;1.88;;;1.77;;
16099;SDS011;8154;50.830;12.082;2023-04-03T17:59:26;1.65;;;1.55;;
16099;SDS011;8154;50.830;12.082;2023-04-03T18:01:52;1.90;;;1.80;;
16099;SDS011;8154;50.830;12.082;2023-04-03T18:04:19;1.95;;;1.85;;
16099;SDS011;8154;50.830;12.082;2023-04-03T18:06:48;1.73;;;1.63;;
16099;SDS011;8154;50.830;12.082;2023-04-03T18:09:18;1.70;;;1.60;;
16099;SDS011;8154;50.830;12.082;2023-04-03T18:11:48;1.70;;;1.60;;
16099;SDS011;8154;50.830;12.082;2023-04-03T18:14:16;1.70;;;1.60;;
16099;SDS011;8154;50.830;12.082;2023-04-03T18:16:46;1.73;;;1.63;;
16099;SDS011;8154;50.830;12.082;2023-04-03T18:19:12;1.60;;;1.50;;
16099;SDS011;8154;50.830;12.082;2023-04-03T18:21:39;1.70;;;1.60;;
16099;SDS011;8154;50.830;12.082;2023-04-03T18:24:06;1.80;;;1.70;;
16099;SDS011;8154;50.830;12.082;2023-04-03T18:26:37;1.90;;;1.80;;
16099;SDS011;8154;50.830;12.082;2023-04-03T18:29:05;1.80;;;1.70;;
16099;SDS011;8154;50.830;12.082;2023-04-03T18:31:34;1.70;;;1.60;;
16099;SDS011;8154;50.830;12.082;2023-04-03T18:34:02;1.70;;;1.60;;
16099;SDS011;8154;50.830;12.082;2023-04-03T18:36:28;1.60;;;1.50;;
16099;SDS011;8154;50.830;12.082;2023-04-03T18:38:55;1.70;;;1.60;;
16099;SDS011;8154;50.830;12.082;2023-04-03T18:41:23;1.77;;;1.67;;
16099;SDS011;8154;50.830;12.082;2023-04-03T18:43:52;1.60;;;1.50;;
16099;SDS011;8154;50.830;12.082;2023-04-03T18:46:23;1.73;;;1.63;;
16099;SDS011;8154;50.830;12.082;2023-04-03T18:48:53;1.52;;;1.42;;
16099;SDS011;8154;50.830;12.082;2023-04-03T18:51:22;1.70;;;1.60;;
16099;SDS011;8154;50.830;12.082;2023-04-03T18:53:50;1.73;;;1.63;;
16099;SDS011;8154;50.830;12.082;2023-04-03T18:56:17;1.80;;;1.70;;
16099;SDS011;8154;50.830;12.082;2023-04-03T18:58:43;1.63;;;1.52;;
16099;SDS011;8154;50.830;12.082;2023-04-03T19:01:09;1.50;;;1.40;;
16099;SDS011;8154;50.830;12.082;2023-04-03T19:03:37;1.77;;;1.67;;
16099;SDS011;8154;50.830;12.082;2023-04-03T19:06:05;1.75;;;1.65;;
16099;SDS011;8154;50.830;12.082;2023-04-03T19:08:31;1.70;;;1.60;;
16099;SDS011;8154;50.830;12.082;2023-04-03T19:10:59;1.60;;;1.50;;
16099;SDS011;8154;50.830;12.082;2023-04-03T19:13:26;1.63;;;1.52;;
16099;SDS011;8154;50.830;12.082;2023-04-03T19:15:53;1.73;;;1.63;;
16099;SDS011;8154;50.830;12.082;2023-04-03T19:18:31;1.70;;;1.60;;
16099;SDS011;8154;50.830;12.082;2023-04-03T19:20:58;1.70;;;1.60;;
16099;SDS011;8154;50.830;12.082;2023-04-03T19:23:25;1.50;;;1.40;;
16099;SDS011;8154;50.830;12.082;2023-04-03T19:26:03;1.60;;;1.50;;
16099;SDS011;8154;50.830;12.082;2023-04-03T19:28:32;1.50;;;1.40;;
16099;SDS011;8154;50.830;12.082;2023-04-03T19:30:59;1.45;;;1.35;;
16099;SDS011;8154;50.830;12.082;2023-04-03T19:33:26;1.75;;;1.65;;
16099;SDS011;8154;50.830;12.082;2023-04-03T19:36:08;1.50;;;1.40;;
16099;SDS011;8154;50.830;12.082;2023-04-03T19:38:36;1.50;;;1.40;;
16099;SDS011;8154;50.830;12.082;2023-04-03T19:41:11;1.70;;;1.60;;
16099;SDS011;8154;50.830;12.082;2023-04-03T19:43:40;1.60;;;1.50;;
16099;SDS011;8154;50.830;12.082;2023-04-03T19:46:07;1.48;;;1.38;;
16099;SDS011;8154;50.830;12.082;2023-04-03T19:48:34;1.60;;;1.50;;
16099;SDS011;8154;50.830;12.082;2023-04-03T21:54:10;1.25;;;1.15;;
16099;SDS011;8154;50.830;12.082;2023-04-03T21:56:37;1.10;;;1.10;;
16099;SDS011;8154;50.830;12.082;2023-04-03T21:59:03;1.10;;;1.10;;
16099;SDS011;8154;50.830;12.082;2023-04-03T22:01:29;1.10;;;1.10;;
16099;SDS011;8154;50.830;12.082;2023-04-03T22:03:57;1.20;;;1.20;;
16099;SDS011;8154;50.830;12.082;2023-04-03T22:06:24;1.38;;;1.27;;
16099;SDS011;8154;50.830;12.082;2023-04-03T22:08:51;1.30;;;1.20;;
16099;SDS011;8154;50.830;12.082;2023-04-03T22:11:17;1.10;;;1.10;;
16099;SDS011;8154;50.830;12.082;2023-04-03T22:13:43;1.30;;;1.20;;
16099;SDS011;8154;50.830;12.082;2023-04-03T22:16:10;1.00;;;1.00;;
16099;SDS011;8154;50.830;12.082;2023-04-03T22:18:37;1.25;;;1.15;;
16099;SDS011;8154;50.830;12.082;2023-04-03T22:21:03;1.13;;;1.13;;
16099;SDS011;8154;50.830;12.082;2023-04-03T22:23:33;0.95;;;0.95;;
16099;SDS011;8154;50.830;12.082;2023-04-03T22:26:01;1.10;;;1.00;;
16099;SDS011;8154;50.830;12.082;2023-04-03T22:28:31;1.10;;;1.10;;
16099;SDS011;8154;50.830;12.082;2023-04-03T22:31:07;1.10;;;1.10;;
16099;SDS011;8154;50.830;12.082;2023-04-03T22:33:34;1.30;;;1.20;;
16099;SDS011;8154;50.830;12.082;2023-04-03T22:36:04;1.00;;;1.00;;
16099;SDS011;8154;50.830;12.082;2023-04-03T22:38:31;1.00;;;1.00;;
16099;SDS011;8154;50.830;12.082;2023-04-03T22:40:58;0.93;;;0.93;;
16099;SDS011;8154;50.830;12.082;2023-04-03T22:43:25;1.02;;;1.00;;
16099;SDS011;8154;50.830;12.082;2023-04-03T22:45:52;1.20;;;1.15;;
16099;SDS011;8154;50.830;12.082;2023-04-03T22:48:18;1.05;;;1.05;;
16099;SDS011;8154;50.830;12.082;2023-04-03T22:50:44;0.90;;;0.90;;
16099;SDS011;8154;50.830;12.082;2023-04-03T22:53:11;1.00;;;1.00;;
16099;SDS011;8154;50.830;12.082;2023-04-03T23:53:46;1.48;;;0.90;;
16099;SDS011;8154;50.830;12.082;2023-04-03T23:56:13;0.85;;;0.85;;
16099;SDS011;8154;50.830;12.082;2023-04-03T23:58:39;0.93;;;0.93;;
